Pacific Hope — 3FLH6 — position and weather

sailwx.info

Track history (hours):
 
Tides and Currents Weather Stations Pressure Air Temp Water Temp Dewpoint Dewpoint Depression Visibility Wind Speed Wind Dir Waves Ship Positions

Pacific Hope

Last reported at 2018-May-23 02:18 UTC. Time now 2018-May-23 09:41 UTC.
Position S 06°45' E 112°56'.

Length 169 m; draft 5.1 m.

Type: Cargo ship. MMSI: 351849000.

Date/timePositionNaut miles runAvg speedWind from/ knotsBaromVisibWave heightAir tempDewpointWater temp
2018-May-23 02:18S 06°45' E 112°56'411.4
2018-May-23 01:59S 06°47' E 112°53'611.8
2018-May-23 01:26S 06°50' E 112°47'1010.9
2018-May-23 00:29S 06°59' E 112°42'813.1
2018-May-22 23:54S 07°06' E 112°39'513.2
2018-May-22 23:30S 07°11' E 112°41'2 1.6
2018-May-22 22:10S 07°12' E 112°43'0 0.0
2018-May-22 21:49S 07°12' E 112°43'0 0.0
2018-May-22 20:55S 07°12' E 112°43'0 0.0
2018-May-22 20:25S 07°12' E 112°43'0 0.0
2018-May-22 19:55S 07°12' E 112°43'0 0.0
2018-May-22 19:25S 07°12' E 112°43'0 0.0
2018-May-22 18:01S 07°12' E 112°43'0 0.0
2018-May-22 14:25S 07°12' E 112°43'0 0.0
2018-May-22 13:58S 07°12' E 112°43'0 0.0
2018-May-22 11:49S 07°12' E 112°43'0 0.0
2018-May-22 10:52S 07°12' E 112°43'0 0.0
2018-May-22 07:55S 07°12' E 112°43'0 0.0
2018-May-22 03:58S 07°12' E 112°43'0 0.0
2018-May-22 01:04S 07°12' E 112°43'0 0.0
2018-May-22 00:52S 07°12' E 112°43'0 0.0
2018-May-22 00:28S 07°12' E 112°43'0 0.0
2018-May-21 23:52S 07°12' E 112°43'0 0.0
2018-May-21 23:19S 07°12' E 112°43'0 0.0
2018-May-21 21:58S 07°12' E 112°43'0 0.0
2018-May-21 21:10S 07°12' E 112°43'0 0.0
2018-May-21 20:55S 07°12' E 112°43'0 0.0
2018-May-21 20:25S 07°12' E 112°43'0 0.0
2018-May-21 17:40S 07°12' E 112°43'0 0.0
2018-May-21 17:25S 07°12' E 112°43'0 0.0
2018-May-21 15:55S 07°12' E 112°43'0 0.0
2018-May-21 12:28S 07°12' E 112°43'0 0.0
2018-May-21 11:55S 07°12' E 112°43'0 0.0
2018-May-21 10:04S 07°12' E 112°43'0 0.0
2018-May-21 09:10S 07°12' E 112°43'0 0.0
2018-May-21 07:40S 07°12' E 112°43'0 0.0
2018-May-21 07:25S 07°12' E 112°43'0 0.0
2018-May-21 05:58S 07°12' E 112°43'0 0.0
2018-May-21 05:28S 07°12' E 112°43'0 0.0
2018-May-21 04:46S 07°12' E 112°43'0 0.0
2018-May-21 02:19S 07°12' E 112°43'0 0.0
2018-May-20 22:22S 07°12' E 112°43'0 0.0
2018-May-20 17:10S 07°12' E 112°43'0 0.0
2018-May-20 16:46S 07°12' E 112°43'0 0.0
2018-May-20 16:25S 07°12' E 112°43'0 0.0
2018-May-20 13:28S 07°12' E 112°43'0 0.0
2018-May-20 12:55S 07°12' E 112°43'0 0.0
2018-May-20 12:16S 07°12' E 112°43'0 0.0
2018-May-20 11:49S 07°12' E 112°43'0 0.0
2018-May-20 10:19S 07°12' E 112°43'0 0.0
2018-May-20 04:13S 07°12' E 112°43'0 0.0
2018-May-20 03:55S 07°12' E 112°43'0 0.0
2018-May-20 01:19S 07°12' E 112°43'0 0.3
2018-May-20 01:00S 07°12' E 112°43'4 5.1
2018-May-20 00:17S 07°10' E 112°40'3 9.8
2018-May-20 00:00S 07°07' E 112°39'510.7
2018-May-19 23:30S 07°02' E 112°40'510.5
2018-May-19 23:00S 06°57' E 112°43'5 9.8
2018-May-19 22:29S 06°53' E 112°45'4 7.2
2018-May-19 21:53S 06°48' E 112°45'2 0.3
2018-May-19 15:49S 06°48' E 112°47'0 0.0
2018-May-19 09:40S 06°48' E 112°47'0 0.0
2018-May-19 09:28S 06°48' E 112°47'0 0.0
2018-May-19 05:07S 06°48' E 112°47'0 0.0
2018-May-19 00:55S 06°48' E 112°47'0 0.0
2018-May-18 22:58S 06°48' E 112°47'0 0.0
2018-May-18 21:52S 06°48' E 112°47'0 0.0
2018-May-18 13:31S 06°48' E 112°47'0 0.0
2018-May-18 13:25S 06°48' E 112°47'0 0.0
2018-May-18 11:04S 06°48' E 112°47'0 0.0
2018-May-18 06:49S 06°48' E 112°47'0 0.0
2018-May-18 06:25S 06°48' E 112°47'0 0.0
2018-May-18 04:55S 06°48' E 112°47'0 0.0
2018-May-18 01:46S 06°48' E 112°47'0 0.0
2018-May-18 01:28S 06°48' E 112°47'0 0.0
2018-May-18 00:49S 06°48' E 112°47'0 0.0
2018-May-18 00:22S 06°48' E 112°47'0 0.2
2018-May-17 23:34S 06°48' E 112°47'0 0.7
2018-May-17 23:29S 06°48' E 112°47'2 4.8
2018-May-17 23:00S 06°47' E 112°45'4 8.0
2018-May-17 22:30S 06°43' E 112°43'  
Track history (hours):
 
Tides and Currents Weather Stations Pressure Air Temp Water Temp Dewpoint Dewpoint Depression Visibility Wind Speed Wind Dir Waves Ship Positions

Pacific Hope

Last reported at 2018-May-23 02:18 UTC. Time now 2018-May-23 09:41 UTC.
Position S 06°45' E 112°56'.

Length 169 m; draft 5.1 m.

Type: Cargo ship. MMSI: 351849000.

Date/timePositionNaut miles runAvg speedWind from/ knotsBaromVisibWave heightAir tempDewpointWater temp
2018-May-23 02:18S 06°45' E 112°56'411.4
2018-May-23 01:59S 06°47' E 112°53'611.8
2018-May-23 01:26S 06°50' E 112°47'1010.9
2018-May-23 00:29S 06°59' E 112°42'813.1
2018-May-22 23:54S 07°06' E 112°39'513.2
2018-May-22 23:30S 07°11' E 112°41'2 1.6
2018-May-22 22:10S 07°12' E 112°43'0 0.0
2018-May-22 21:49S 07°12' E 112°43'0 0.0
2018-May-22 20:55S 07°12' E 112°43'0 0.0
2018-May-22 20:25S 07°12' E 112°43'0 0.0
2018-May-22 19:55S 07°12' E 112°43'0 0.0
2018-May-22 19:25S 07°12' E 112°43'0 0.0
2018-May-22 18:01S 07°12' E 112°43'0 0.0
2018-May-22 14:25S 07°12' E 112°43'0 0.0
2018-May-22 13:58S 07°12' E 112°43'0 0.0
2018-May-22 11:49S 07°12' E 112°43'0 0.0
2018-May-22 10:52S 07°12' E 112°43'0 0.0
2018-May-22 07:55S 07°12' E 112°43'0 0.0
2018-May-22 03:58S 07°12' E 112°43'0 0.0
2018-May-22 01:04S 07°12' E 112°43'0 0.0
2018-May-22 00:52S 07°12' E 112°43'0 0.0
2018-May-22 00:28S 07°12' E 112°43'0 0.0
2018-May-21 23:52S 07°12' E 112°43'0 0.0
2018-May-21 23:19S 07°12' E 112°43'0 0.0
2018-May-21 21:58S 07°12' E 112°43'0 0.0
2018-May-21 21:10S 07°12' E 112°43'0 0.0
2018-May-21 20:55S 07°12' E 112°43'0 0.0
2018-May-21 20:25S 07°12' E 112°43'0 0.0
2018-May-21 17:40S 07°12' E 112°43'0 0.0
2018-May-21 17:25S 07°12' E 112°43'0 0.0
2018-May-21 15:55S 07°12' E 112°43'0 0.0
2018-May-21 12:28S 07°12' E 112°43'0 0.0
2018-May-21 11:55S 07°12' E 112°43'0 0.0
2018-May-21 10:04S 07°12' E 112°43'0 0.0
2018-May-21 09:10S 07°12' E 112°43'0 0.0
2018-May-21 07:40S 07°12' E 112°43'0 0.0
2018-May-21 07:25S 07°12' E 112°43'0 0.0
2018-May-21 05:58S 07°12' E 112°43'0 0.0
2018-May-21 05:28S 07°12' E 112°43'0 0.0
2018-May-21 04:46S 07°12' E 112°43'0 0.0
2018-May-21 02:19S 07°12' E 112°43'0 0.0
2018-May-20 22:22S 07°12' E 112°43'0 0.0
2018-May-20 17:10S 07°12' E 112°43'0 0.0
2018-May-20 16:46S 07°12' E 112°43'0 0.0
2018-May-20 16:25S 07°12' E 112°43'0 0.0
2018-May-20 13:28S 07°12' E 112°43'0 0.0
2018-May-20 12:55S 07°12' E 112°43'0 0.0
2018-May-20 12:16S 07°12' E 112°43'0 0.0
2018-May-20 11:49S 07°12' E 112°43'0 0.0
2018-May-20 10:19S 07°12' E 112°43'0 0.0
2018-May-20 04:13S 07°12' E 112°43'0 0.0
2018-May-20 03:55S 07°12' E 112°43'0 0.0
2018-May-20 01:19S 07°12' E 112°43'0 0.3
2018-May-20 01:00S 07°12' E 112°43'4 5.1
2018-May-20 00:17S 07°10' E 112°40'3 9.8
2018-May-20 00:00S 07°07' E 112°39'510.7
2018-May-19 23:30S 07°02' E 112°40'510.5
2018-May-19 23:00S 06°57' E 112°43'5 9.8
2018-May-19 22:29S 06°53' E 112°45'4 7.2
2018-May-19 21:53S 06°48' E 112°45'2 0.3
2018-May-19 15:49S 06°48' E 112°47'0 0.0
2018-May-19 09:40S 06°48' E 112°47'0 0.0
2018-May-19 09:28S 06°48' E 112°47'0 0.0
2018-May-19 05:07S 06°48' E 112°47'0 0.0
2018-May-19 00:55S 06°48' E 112°47'0 0.0
2018-May-18 22:58S 06°48' E 112°47'0 0.0
2018-May-18 21:52S 06°48' E 112°47'0 0.0
2018-May-18 13:31S 06°48' E 112°47'0 0.0
2018-May-18 13:25S 06°48' E 112°47'0 0.0
2018-May-18 11:04S 06°48' E 112°47'0 0.0
2018-May-18 06:49S 06°48' E 112°47'0 0.0
2018-May-18 06:25S 06°48' E 112°47'0 0.0
2018-May-18 04:55S 06°48' E 112°47'0 0.0
2018-May-18 01:46S 06°48' E 112°47'0 0.0
2018-May-18 01:28S 06°48' E 112°47'0 0.0
2018-May-18 00:49S 06°48' E 112°47'0 0.0
2018-May-18 00:22S 06°48' E 112°47'0 0.2
2018-May-17 23:34S 06°48' E 112°47'0 0.7
2018-May-17 23:29S 06°48' E 112°47'2 4.8
2018-May-17 23:00S 06°47' E 112°45'4 8.0
2018-May-17 22:30S 06°43' E 112°43'  

Dump ship's entire track history